sensor_id;sensor_type;location;lat;lon;timestamp;P1;durP1;ratioP1;P2;durP2;ratioP2
3653;SDS011;70277;54.302;10.064;2024-01-15T00:01:59;10.50;;;1.20;;
3653;SDS011;70277;54.302;10.064;2024-01-15T00:04:25;6.95;;;0.93;;
3653;SDS011;70277;54.302;10.064;2024-01-15T00:06:52;12.80;;;1.20;;
3653;SDS011;70277;54.302;10.064;2024-01-15T00:09:18;9.25;;;1.42;;
3653;SDS011;70277;54.302;10.064;2024-01-15T00:11:45;8.70;;;1.25;;
3653;SDS011;70277;54.302;10.064;2024-01-15T00:14:12;3.78;;;0.75;;
3653;SDS011;70277;54.302;10.064;2024-01-15T00:16:40;6.78;;;1.08;;
3653;SDS011;70277;54.302;10.064;2024-01-15T00:19:07;5.63;;;0.60;;
3653;SDS011;70277;54.302;10.064;2024-01-15T00:21:34;20.30;;;1.40;;
3653;SDS011;70277;54.302;10.064;2024-01-15T00:24:01;8.85;;;1.00;;
3653;SDS011;70277;54.302;10.064;2024-01-15T00:26:27;11.05;;;1.25;;
3653;SDS011;70277;54.302;10.064;2024-01-15T00:28:54;9.38;;;0.80;;
3653;SDS011;70277;54.302;10.064;2024-01-15T00:31:20;9.38;;;1.00;;
3653;SDS011;70277;54.302;10.064;2024-01-15T00:33:47;6.70;;;1.08;;
3653;SDS011;70277;54.302;10.064;2024-01-15T00:36:14;6.55;;;0.98;;
3653;SDS011;70277;54.302;10.064;2024-01-15T00:38:41;15.18;;;1.23;;
3653;SDS011;70277;54.302;10.064;2024-01-15T00:41:07;7.00;;;0.90;;
3653;SDS011;70277;54.302;10.064;2024-01-15T00:43:34;17.13;;;1.30;;
3653;SDS011;70277;54.302;10.064;2024-01-15T00:46:04;9.77;;;1.70;;
3653;SDS011;70277;54.302;10.064;2024-01-15T00:50:58;8.70;;;1.73;;
3653;SDS011;70277;54.302;10.064;2024-01-15T00:53:25;20.60;;;3.28;;
3653;SDS011;70277;54.302;10.064;2024-01-15T00:55:52;13.60;;;1.77;;
3653;SDS011;70277;54.302;10.064;2024-01-15T00:58:18;15.18;;;2.63;;
3653;SDS011;70277;54.302;10.064;2024-01-15T01:00:45;13.20;;;1.85;;
3653;SDS011;70277;54.302;10.064;2024-01-15T01:03:12;19.55;;;1.77;;
3653;SDS011;70277;54.302;10.064;2024-01-15T01:05:38;11.98;;;2.10;;
3653;SDS011;70277;54.302;10.064;2024-01-15T01:08:05;26.25;;;2.55;;
3653;SDS011;70277;54.302;10.064;2024-01-15T01:10:32;22.17;;;1.77;;
3653;SDS011;70277;54.302;10.064;2024-01-15T01:12:58;18.67;;;2.13;;
3653;SDS011;70277;54.302;10.064;2024-01-15T01:15:25;13.57;;;2.10;;
3653;SDS011;70277;54.302;10.064;2024-01-15T01:17:52;26.45;;;3.15;;
3653;SDS011;70277;54.302;10.064;2024-01-15T01:20:18;19.65;;;2.58;;
3653;SDS011;70277;54.302;10.064;2024-01-15T01:22:45;16.98;;;2.60;;
3653;SDS011;70277;54.302;10.064;2024-01-15T01:25:12;28.17;;;2.95;;
3653;SDS011;70277;54.302;10.064;2024-01-15T01:27:38;16.92;;;3.08;;
3653;SDS011;70277;54.302;10.064;2024-01-15T01:30:05;28.98;;;2.90;;
3653;SDS011;70277;54.302;10.064;2024-01-15T01:32:32;26.17;;;3.53;;
3653;SDS011;70277;54.302;10.064;2024-01-15T01:34:59;24.02;;;2.88;;
3653;SDS011;70277;54.302;10.064;2024-01-15T01:37:26;22.58;;;3.03;;
3653;SDS011;70277;54.302;10.064;2024-01-15T01:39:52;21.42;;;2.53;;
3653;SDS011;70277;54.302;10.064;2024-01-15T01:42:19;23.65;;;3.03;;
3653;SDS011;70277;54.302;10.064;2024-01-15T01:44:45;36.60;;;3.17;;
3653;SDS011;70277;54.302;10.064;2024-01-15T01:47:12;22.52;;;2.55;;
3653;SDS011;70277;54.302;10.064;2024-01-15T01:49:40;16.98;;;2.47;;
3653;SDS011;70277;54.302;10.064;2024-01-15T01:52:08;30.02;;;3.15;;
3653;SDS011;70277;54.302;10.064;2024-01-15T01:54:35;16.38;;;2.00;;
3653;SDS011;70277;54.302;10.064;2024-01-15T01:57:04;19.35;;;1.85;;
3653;SDS011;70277;54.302;10.064;2024-01-15T01:59:32;21.20;;;2.80;;
3653;SDS011;70277;54.302;10.064;2024-01-15T02:02:00;7.55;;;1.58;;
3653;SDS011;70277;54.302;10.064;2024-01-15T02:04:30;20.50;;;2.20;;
3653;SDS011;70277;54.302;10.064;2024-01-15T02:06:58;15.05;;;2.10;;
3653;SDS011;70277;54.302;10.064;2024-01-15T02:09:26;17.05;;;1.88;;
3653;SDS011;70277;54.302;10.064;2024-01-15T02:11:52;18.55;;;1.83;;
3653;SDS011;70277;54.302;10.064;2024-01-15T02:14:19;13.13;;;2.20;;
3653;SDS011;70277;54.302;10.064;2024-01-15T02:16:45;19.88;;;2.33;;
3653;SDS011;70277;54.302;10.064;2024-01-15T02:19:15;9.57;;;1.73;;
3653;SDS011;70277;54.302;10.064;2024-01-15T02:21:44;8.50;;;1.05;;
3653;SDS011;70277;54.302;10.064;2024-01-15T02:24:11;12.43;;;2.00;;
3653;SDS011;70277;54.302;10.064;2024-01-15T02:26:38;18.02;;;3.38;;
3653;SDS011;70277;54.302;10.064;2024-01-15T02:29:06;15.35;;;1.98;;
3653;SDS011;70277;54.302;10.064;2024-01-15T02:31:35;14.27;;;2.10;;
3653;SDS011;70277;54.302;10.064;2024-01-15T02:34:03;15.82;;;2.30;;
3653;SDS011;70277;54.302;10.064;2024-01-15T02:36:29;10.27;;;1.42;;
3653;SDS011;70277;54.302;10.064;2024-01-15T02:38:56;19.48;;;1.50;;
3653;SDS011;70277;54.302;10.064;2024-01-15T02:41:23;16.60;;;2.13;;
3653;SDS011;70277;54.302;10.064;2024-01-15T02:43:49;13.75;;;1.85;;
3653;SDS011;70277;54.302;10.064;2024-01-15T02:46:16;14.65;;;1.65;;
3653;SDS011;70277;54.302;10.064;2024-01-15T02:48:43;20.55;;;1.75;;
3653;SDS011;70277;54.302;10.064;2024-01-15T02:51:09;10.75;;;1.60;;
3653;SDS011;70277;54.302;10.064;2024-01-15T02:53:36;9.52;;;1.70;;
3653;SDS011;70277;54.302;10.064;2024-01-15T02:56:03;12.05;;;1.90;;
3653;SDS011;70277;54.302;10.064;2024-01-15T02:58:30;17.45;;;2.40;;
3653;SDS011;70277;54.302;10.064;2024-01-15T03:00:57;12.35;;;1.30;;
3653;SDS011;70277;54.302;10.064;2024-01-15T03:03:24;16.95;;;2.00;;
3653;SDS011;70277;54.302;10.064;2024-01-15T03:05:51;22.23;;;2.22;;
3653;SDS011;70277;54.302;10.064;2024-01-15T03:08:17;13.68;;;1.63;;
3653;SDS011;70277;54.302;10.064;2024-01-15T03:10:44;15.27;;;1.58;;
3653;SDS011;70277;54.302;10.064;2024-01-15T03:13:11;18.73;;;1.92;;
3653;SDS011;70277;54.302;10.064;2024-01-15T03:15:37;17.88;;;2.08;;
3653;SDS011;70277;54.302;10.064;2024-01-15T03:18:04;11.00;;;1.55;;
3653;SDS011;70277;54.302;10.064;2024-01-15T03:20:31;11.40;;;2.30;;
3653;SDS011;70277;54.302;10.064;2024-01-15T03:22:57;16.83;;;2.05;;
3653;SDS011;70277;54.302;10.064;2024-01-15T03:25:24;15.05;;;1.40;;
3653;SDS011;70277;54.302;10.064;2024-01-15T03:27:50;15.45;;;1.13;;
3653;SDS011;70277;54.302;10.064;2024-01-15T03:30:17;12.13;;;1.45;;
3653;SDS011;70277;54.302;10.064;2024-01-15T03:32:43;10.73;;;1.20;;
3653;SDS011;70277;54.302;10.064;2024-01-15T03:35:10;5.55;;;1.40;;
3653;SDS011;70277;54.302;10.064;2024-01-15T03:37:37;13.15;;;2.05;;
3653;SDS011;70277;54.302;10.064;2024-01-15T03:40:03;13.48;;;1.73;;
3653;SDS011;70277;54.302;10.064;2024-01-15T03:42:31;10.85;;;1.73;;
3653;SDS011;70277;54.302;10.064;2024-01-15T03:44:57;11.05;;;1.17;;
3653;SDS011;70277;54.302;10.064;2024-01-15T03:47:24;19.80;;;4.50;;
3653;SDS011;70277;54.302;10.064;2024-01-15T03:49:51;10.02;;;1.35;;
3653;SDS011;70277;54.302;10.064;2024-01-15T03:52:17;10.75;;;1.40;;
3653;SDS011;70277;54.302;10.064;2024-01-15T03:54:44;13.00;;;1.75;;
3653;SDS011;70277;54.302;10.064;2024-01-15T03:57:10;6.72;;;1.00;;
3653;SDS011;70277;54.302;10.064;2024-01-15T03:59:37;11.57;;;1.85;;
3653;SDS011;70277;54.302;10.064;2024-01-15T04:02:04;16.08;;;1.50;;
3653;SDS011;70277;54.302;10.064;2024-01-15T04:04:30;10.90;;;1.42;;
3653;SDS011;70277;54.302;10.064;2024-01-15T04:06:57;10.48;;;1.45;;
3653;SDS011;70277;54.302;10.064;2024-01-15T04:09:23;7.22;;;0.93;;
3653;SDS011;70277;54.302;10.064;2024-01-15T04:11:50;10.23;;;1.48;;
3653;SDS011;70277;54.302;10.064;2024-01-15T04:14:17;12.07;;;1.67;;
3653;SDS011;70277;54.302;10.064;2024-01-15T04:16:43;10.25;;;1.00;;
3653;SDS011;70277;54.302;10.064;2024-01-15T04:19:10;11.70;;;1.30;;
3653;SDS011;70277;54.302;10.064;2024-01-15T04:21:36;11.55;;;1.48;;
3653;SDS011;70277;54.302;10.064;2024-01-15T04:24:03;10.02;;;1.30;;
3653;SDS011;70277;54.302;10.064;2024-01-15T04:26:30;15.68;;;1.75;;
3653;SDS011;70277;54.302;10.064;2024-01-15T04:28:56;17.73;;;1.75;;
3653;SDS011;70277;54.302;10.064;2024-01-15T04:31:25;13.20;;;1.70;;
3653;SDS011;70277;54.302;10.064;2024-01-15T04:33:53;14.00;;;2.22;;
3653;SDS011;70277;54.302;10.064;2024-01-15T04:36:20;16.90;;;1.50;;
3653;SDS011;70277;54.302;10.064;2024-01-15T04:38:47;16.63;;;1.83;;
3653;SDS011;70277;54.302;10.064;2024-01-15T04:41:14;10.23;;;1.48;;
3653;SDS011;70277;54.302;10.064;2024-01-15T04:43:42;12.10;;;1.50;;
3653;SDS011;70277;54.302;10.064;2024-01-15T04:46:08;12.30;;;1.58;;
3653;SDS011;70277;54.302;10.064;2024-01-15T04:48:36;15.50;;;1.80;;
3653;SDS011;70277;54.302;10.064;2024-01-15T04:51:05;11.23;;;2.47;;
3653;SDS011;70277;54.302;10.064;2024-01-15T04:53:33;13.05;;;1.67;;
3653;SDS011;70277;54.302;10.064;2024-01-15T04:56:00;18.38;;;1.50;;
3653;SDS011;70277;54.302;10.064;2024-01-15T04:58:27;16.50;;;1.88;;
3653;SDS011;70277;54.302;10.064;2024-01-15T05:00:53;15.38;;;2.28;;
3653;SDS011;70277;54.302;10.064;2024-01-15T05:03:20;16.63;;;1.48;;
3653;SDS011;70277;54.302;10.064;2024-01-15T05:05:47;9.50;;;1.88;;
3653;SDS011;70277;54.302;10.064;2024-01-15T05:08:14;12.48;;;1.60;;
3653;SDS011;70277;54.302;10.064;2024-01-15T05:10:41;10.85;;;1.63;;
3653;SDS011;70277;54.302;10.064;2024-01-15T05:13:07;17.27;;;1.98;;
3653;SDS011;70277;54.302;10.064;2024-01-15T05:15:34;18.85;;;2.30;;
3653;SDS011;70277;54.302;10.064;2024-01-15T05:18:00;12.98;;;1.17;;
3653;SDS011;70277;54.302;10.064;2024-01-15T05:20:27;11.18;;;1.70;;
3653;SDS011;70277;54.302;10.064;2024-01-15T05:22:53;12.40;;;1.88;;
3653;SDS011;70277;54.302;10.064;2024-01-15T05:25:20;13.57;;;1.08;;
3653;SDS011;70277;54.302;10.064;2024-01-15T05:27:46;16.77;;;1.50;;
3653;SDS011;70277;54.302;10.064;2024-01-15T05:30:13;6.90;;;1.45;;
3653;SDS011;70277;54.302;10.064;2024-01-15T05:32:40;10.70;;;1.30;;
3653;SDS011;70277;54.302;10.064;2024-01-15T05:35:07;12.23;;;1.50;;
3653;SDS011;70277;54.302;10.064;2024-01-15T05:37:33;5.57;;;1.15;;
3653;SDS011;70277;54.302;10.064;2024-01-15T05:40:00;13.95;;;1.50;;
3653;SDS011;70277;54.302;10.064;2024-01-15T05:42:27;10.88;;;1.27;;
3653;SDS011;70277;54.302;10.064;2024-01-15T05:44:56;12.18;;;1.38;;
3653;SDS011;70277;54.302;10.064;2024-01-15T05:47:22;14.57;;;1.83;;
3653;SDS011;70277;54.302;10.064;2024-01-15T05:49:49;13.95;;;1.35;;
3653;SDS011;70277;54.302;10.064;2024-01-15T05:52:16;11.55;;;1.80;;
3653;SDS011;70277;54.302;10.064;2024-01-15T05:54:43;10.23;;;1.33;;
3653;SDS011;70277;54.302;10.064;2024-01-15T05:57:12;8.45;;;1.27;;
3653;SDS011;70277;54.302;10.064;2024-01-15T05:59:39;15.80;;;2.05;;
3653;SDS011;70277;54.302;10.064;2024-01-15T06:02:05;13.95;;;1.58;;
3653;SDS011;70277;54.302;10.064;2024-01-15T06:04:32;9.05;;;1.10;;
3653;SDS011;70277;54.302;10.064;2024-01-15T06:06:59;17.73;;;1.48;;
3653;SDS011;70277;54.302;10.064;2024-01-15T06:09:25;14.40;;;1.08;;
3653;SDS011;70277;54.302;10.064;2024-01-15T06:11:52;13.07;;;1.40;;
3653;SDS011;70277;54.302;10.064;2024-01-15T06:14:18;9.88;;;1.25;;
3653;SDS011;70277;54.302;10.064;2024-01-15T06:16:45;9.25;;;1.17;;
3653;SDS011;70277;54.302;10.064;2024-01-15T06:19:11;9.77;;;2.33;;
3653;SDS011;70277;54.302;10.064;2024-01-15T06:21:38;11.35;;;1.35;;
3653;SDS011;70277;54.302;10.064;2024-01-15T06:24:04;10.07;;;1.42;;
3653;SDS011;70277;54.302;10.064;2024-01-15T06:26:31;10.93;;;1.20;;
3653;SDS011;70277;54.302;10.064;2024-01-15T06:28:58;6.93;;;1.20;;
3653;SDS011;70277;54.302;10.064;2024-01-15T06:31:24;4.65;;;1.00;;
3653;SDS011;70277;54.302;10.064;2024-01-15T06:33:51;8.80;;;1.08;;
3653;SDS011;70277;54.302;10.064;2024-01-15T06:36:18;10.43;;;1.05;;
3653;SDS011;70277;54.302;10.064;2024-01-15T06:38:44;7.28;;;1.42;;
3653;SDS011;70277;54.302;10.064;2024-01-15T06:41:11;11.07;;;1.60;;
3653;SDS011;70277;54.302;10.064;2024-01-15T06:43:37;9.52;;;1.60;;
3653;SDS011;70277;54.302;10.064;2024-01-15T06:46:04;14.63;;;1.50;;
3653;SDS011;70277;54.302;10.064;2024-01-15T06:48:33;7.63;;;1.23;;
3653;SDS011;70277;54.302;10.064;2024-01-15T06:51:00;9.48;;;1.98;;
3653;SDS011;70277;54.302;10.064;2024-01-15T06:53:27;12.75;;;1.38;;
3653;SDS011;70277;54.302;10.064;2024-01-15T06:55:54;9.43;;;1.33;;
3653;SDS011;70277;54.302;10.064;2024-01-15T06:58:20;6.88;;;1.17;;
3653;SDS011;70277;54.302;10.064;2024-01-15T07:00:47;9.63;;;1.40;;
3653;SDS011;70277;54.302;10.064;2024-01-15T07:03:13;7.65;;;0.90;;
3653;SDS011;70277;54.302;10.064;2024-01-15T07:05:40;14.65;;;1.30;;
3653;SDS011;70277;54.302;10.064;2024-01-15T07:08:06;11.57;;;1.33;;
3653;SDS011;70277;54.302;10.064;2024-01-15T07:10:33;13.15;;;1.25;;
3653;SDS011;70277;54.302;10.064;2024-01-15T07:13:02;12.65;;;1.52;;
3653;SDS011;70277;54.302;10.064;2024-01-15T07:15:31;10.02;;;1.42;;
3653;SDS011;70277;54.302;10.064;2024-01-15T07:17:57;10.23;;;1.33;;
3653;SDS011;70277;54.302;10.064;2024-01-15T07:20:24;8.68;;;1.00;;
3653;SDS011;70277;54.302;10.064;2024-01-15T07:22:50;11.35;;;2.67;;
3653;SDS011;70277;54.302;10.064;2024-01-15T07:25:17;13.88;;;1.20;;
3653;SDS011;70277;54.302;10.064;2024-01-15T07:27:43;13.13;;;1.42;;
3653;SDS011;70277;54.302;10.064;2024-01-15T07:30:11;12.65;;;1.83;;
3653;SDS011;70277;54.302;10.064;2024-01-15T07:32:38;7.82;;;1.08;;
3653;SDS011;70277;54.302;10.064;2024-01-15T07:35:05;9.35;;;0.80;;
3653;SDS011;70277;54.302;10.064;2024-01-15T07:37:32;9.57;;;1.38;;
3653;SDS011;70277;54.302;10.064;2024-01-15T07:39:59;8.25;;;0.93;;
3653;SDS011;70277;54.302;10.064;2024-01-15T07:42:26;6.43;;;0.88;;
3653;SDS011;70277;54.302;10.064;2024-01-15T07:44:53;9.50;;;1.90;;
3653;SDS011;70277;54.302;10.064;2024-01-15T07:47:20;11.18;;;1.10;;
3653;SDS011;70277;54.302;10.064;2024-01-15T07:49:46;8.27;;;1.02;;
3653;SDS011;70277;54.302;10.064;2024-01-15T07:52:13;6.85;;;1.23;;
3653;SDS011;70277;54.302;10.064;2024-01-15T07:54:40;5.03;;;0.90;;
3653;SDS011;70277;54.302;10.064;2024-01-15T07:57:07;10.18;;;1.30;;
3653;SDS011;70277;54.302;10.064;2024-01-15T07:59:34;9.48;;;1.10;;
3653;SDS011;70277;54.302;10.064;2024-01-15T08:02:01;8.30;;;1.38;;
3653;SDS011;70277;54.302;10.064;2024-01-15T08:04:28;5.60;;;0.90;;
3653;SDS011;70277;54.302;10.064;2024-01-15T08:06:55;10.23;;;1.05;;
3653;SDS011;70277;54.302;10.064;2024-01-15T08:09:23;7.93;;;0.88;;
3653;SDS011;70277;54.302;10.064;2024-01-15T08:11:50;5.05;;;0.88;;
3653;SDS011;70277;54.302;10.064;2024-01-15T08:14:17;3.75;;;0.60;;
3653;SDS011;70277;54.302;10.064;2024-01-15T08:16:44;3.83;;;0.80;;
3653;SDS011;70277;54.302;10.064;2024-01-15T08:19:10;7.90;;;0.93;;
3653;SDS011;70277;54.302;10.064;2024-01-15T08:21:38;7.75;;;0.70;;
3653;SDS011;70277;54.302;10.064;2024-01-15T08:24:04;6.55;;;0.85;;
3653;SDS011;70277;54.302;10.064;2024-01-15T08:26:32;4.88;;;0.60;;
3653;SDS011;70277;54.302;10.064;2024-01-15T08:28:58;4.60;;;0.73;;
3653;SDS011;70277;54.302;10.064;2024-01-15T08:31:25;5.47;;;0.60;;
3653;SDS011;70277;54.302;10.064;2024-01-15T08:33:52;5.40;;;0.68;;
3653;SDS011;70277;54.302;10.064;2024-01-15T08:36:19;2.70;;;0.80;;
3653;SDS011;70277;54.302;10.064;2024-01-15T08:38:47;5.38;;;0.73;;
3653;SDS011;70277;54.302;10.064;2024-01-15T08:41:14;6.57;;;0.82;;
3653;SDS011;70277;54.302;10.064;2024-01-15T08:43:40;2.13;;;1.13;;
3653;SDS011;70277;54.302;10.064;2024-01-15T08:46:07;1.17;;;0.40;;
3653;SDS011;70277;54.302;10.064;2024-01-15T08:48:34;5.80;;;0.80;;
3653;SDS011;70277;54.302;10.064;2024-01-15T08:51:00;2.80;;;0.50;;
3653;SDS011;70277;54.302;10.064;2024-01-15T08:53:27;2.17;;;0.50;;
3653;SDS011;70277;54.302;10.064;2024-01-15T08:55:54;5.72;;;0.55;;
3653;SDS011;70277;54.302;10.064;2024-01-15T08:58:20;1.75;;;0.57;;
3653;SDS011;70277;54.302;10.064;2024-01-15T09:00:47;5.13;;;0.93;;
3653;SDS011;70277;54.302;10.064;2024-01-15T09:03:14;4.03;;;1.05;;
3653;SDS011;70277;54.302;10.064;2024-01-15T09:05:40;5.13;;;0.50;;
3653;SDS011;70277;54.302;10.064;2024-01-15T09:08:07;2.55;;;0.30;;
3653;SDS011;70277;54.302;10.064;2024-01-15T09:10:34;3.58;;;0.50;;
3653;SDS011;70277;54.302;10.064;2024-01-15T09:13:01;1.55;;;0.60;;
3653;SDS011;70277;54.302;10.064;2024-01-15T09:15:30;4.90;;;0.70;;
3653;SDS011;70277;54.302;10.064;2024-01-15T09:17:56;3.60;;;0.82;;
3653;SDS011;70277;54.302;10.064;2024-01-15T09:20:25;1.27;;;0.50;;
3653;SDS011;70277;54.302;10.064;2024-01-15T09:22:54;3.45;;;0.82;;
3653;SDS011;70277;54.302;10.064;2024-01-15T09:25:20;10.40;;;1.02;;
3653;SDS011;70277;54.302;10.064;2024-01-15T09:27:47;1.33;;;0.90;;
3653;SDS011;70277;54.302;10.064;2024-01-15T09:30:14;1.55;;;0.50;;
3653;SDS011;70277;54.302;10.064;2024-01-15T09:32:41;6.70;;;0.70;;
3653;SDS011;70277;54.302;10.064;2024-01-15T09:35:08;1.90;;;0.60;;
3653;SDS011;70277;54.302;10.064;2024-01-15T09:37:35;1.92;;;0.60;;
3653;SDS011;70277;54.302;10.064;2024-01-15T09:40:13;4.47;;;0.98;;
3653;SDS011;70277;54.302;10.064;2024-01-15T09:42:42;5.38;;;0.50;;
3653;SDS011;70277;54.302;10.064;2024-01-15T09:45:09;1.48;;;0.63;;
3653;SDS011;70277;54.302;10.064;2024-01-15T09:47:36;3.70;;;0.70;;
3653;SDS011;70277;54.302;10.064;2024-01-15T09:50:09;3.13;;;0.40;;
3653;SDS011;70277;54.302;10.064;2024-01-15T09:52:36;4.72;;;0.98;;
3653;SDS011;70277;54.302;10.064;2024-01-15T09:55:03;3.00;;;1.30;;
3653;SDS011;70277;54.302;10.064;2024-01-15T09:57:32;1.75;;;0.43;;
3653;SDS011;70277;54.302;10.064;2024-01-15T09:59:59;8.25;;;0.55;;
3653;SDS011;70277;54.302;10.064;2024-01-15T10:02:30;4.47;;;1.02;;
3653;SDS011;70277;54.302;10.064;2024-01-15T10:04:57;0.55;;;0.47;;
3653;SDS011;70277;54.302;10.064;2024-01-15T10:07:24;2.13;;;0.45;;
3653;SDS011;70277;54.302;10.064;2024-01-15T10:09:52;2.65;;;0.80;;
3653;SDS011;70277;54.302;10.064;2024-01-15T10:12:20;0.98;;;0.50;;
3653;SDS011;70277;54.302;10.064;2024-01-15T10:14:48;12.88;;;1.05;;
3653;SDS011;70277;54.302;10.064;2024-01-15T10:17:16;2.67;;;0.65;;
3653;SDS011;70277;54.302;10.064;2024-01-15T10:19:46;2.70;;;0.52;;
3653;SDS011;70277;54.302;10.064;2024-01-15T10:22:16;5.05;;;1.02;;
3653;SDS011;70277;54.302;10.064;2024-01-15T10:24:44;0.95;;;0.50;;
3653;SDS011;70277;54.302;10.064;2024-01-15T10:27:11;1.35;;;0.50;;
3653;SDS011;70277;54.302;10.064;2024-01-15T10:29:40;3.30;;;0.60;;
3653;SDS011;70277;54.302;10.064;2024-01-15T10:32:08;1.85;;;0.60;;
3653;SDS011;70277;54.302;10.064;2024-01-15T10:34:38;2.47;;;0.60;;
3653;SDS011;70277;54.302;10.064;2024-01-15T10:37:10;1.42;;;0.68;;
3653;SDS011;70277;54.302;10.064;2024-01-15T10:39:37;2.08;;;0.98;;
3653;SDS011;70277;54.302;10.064;2024-01-15T10:42:04;3.45;;;0.80;;
3653;SDS011;70277;54.302;10.064;2024-01-15T10:44:33;3.08;;;0.77;;
3653;SDS011;70277;54.302;10.064;2024-01-15T10:47:01;3.13;;;0.70;;
3653;SDS011;70277;54.302;10.064;2024-01-15T10:49:28;3.90;;;0.55;;
3653;SDS011;70277;54.302;10.064;2024-01-15T10:51:59;2.25;;;0.52;;
3653;SDS011;70277;54.302;10.064;2024-01-15T10:54:27;7.90;;;0.82;;
3653;SDS011;70277;54.302;10.064;2024-01-15T10:56:55;2.30;;;0.70;;
3653;SDS011;70277;54.302;10.064;2024-01-15T10:59:23;0.60;;;0.57;;
3653;SDS011;70277;54.302;10.064;2024-01-15T11:01:51;1.55;;;0.80;;
3653;SDS011;70277;54.302;10.064;2024-01-15T11:04:22;3.63;;;0.80;;
3653;SDS011;70277;54.302;10.064;2024-01-15T11:06:55;4.47;;;0.80;;
3653;SDS011;70277;54.302;10.064;2024-01-15T11:09:23;3.67;;;0.70;;
3653;SDS011;70277;54.302;10.064;2024-01-15T11:11:52;11.18;;;0.90;;
3653;SDS011;70277;54.302;10.064;2024-01-15T11:14:34;4.78;;;1.02;;
3653;SDS011;70277;54.302;10.064;2024-01-15T11:17:23;1.73;;;0.40;;
3653;SDS011;70277;54.302;10.064;2024-01-15T11:19:50;3.88;;;1.00;;
3653;SDS011;70277;54.302;10.064;2024-01-15T11:25:03;4.70;;;0.70;;
3653;SDS011;70277;54.302;10.064;2024-01-15T11:30:08;3.65;;;1.00;;
3653;SDS011;70277;54.302;10.064;2024-01-15T11:32:36;5.75;;;0.60;;
3653;SDS011;70277;54.302;10.064;2024-01-15T11:40:17;2.00;;;0.75;;
3653;SDS011;70277;54.302;10.064;2024-01-15T11:42:45;7.57;;;0.82;;
3653;SDS011;70277;54.302;10.064;2024-01-15T11:45:16;2.47;;;0.60;;
3653;SDS011;70277;54.302;10.064;2024-01-15T11:48:01;4.95;;;0.98;;
3653;SDS011;70277;54.302;10.064;2024-01-15T11:50:49;1.08;;;0.50;;
3653;SDS011;70277;54.302;10.064;2024-01-15T11:53:36;8.77;;;1.17;;
3653;SDS011;70277;54.302;10.064;2024-01-15T11:56:16;6.32;;;0.63;;
3653;SDS011;70277;54.302;10.064;2024-01-15T11:58:44;0.60;;;0.55;;
3653;SDS011;70277;54.302;10.064;2024-01-15T12:01:11;7.32;;;0.82;;
3653;SDS011;70277;54.302;10.064;2024-01-15T12:03:37;0.90;;;0.50;;
3653;SDS011;70277;54.302;10.064;2024-01-15T12:06:08;0.98;;;0.60;;
3653;SDS011;70277;54.302;10.064;2024-01-15T12:08:36;4.78;;;0.70;;
3653;SDS011;70277;54.302;10.064;2024-01-15T12:11:10;5.32;;;0.60;;
3653;SDS011;70277;54.302;10.064;2024-01-15T12:13:40;0.75;;;0.45;;
3653;SDS011;70277;54.302;10.064;2024-01-15T12:16:06;4.63;;;0.90;;
3653;SDS011;70277;54.302;10.064;2024-01-15T12:18:33;1.80;;;0.57;;
3653;SDS011;70277;54.302;10.064;2024-01-15T12:21:00;4.45;;;1.55;;
3653;SDS011;70277;54.302;10.064;2024-01-15T12:23:26;1.20;;;0.52;;
3653;SDS011;70277;54.302;10.064;2024-01-15T12:25:53;2.72;;;0.70;;
3653;SDS011;70277;54.302;10.064;2024-01-15T12:28:20;1.08;;;0.55;;
3653;SDS011;70277;54.302;10.064;2024-01-15T12:30:46;5.18;;;1.08;;
3653;SDS011;70277;54.302;10.064;2024-01-15T12:33:17;0.70;;;0.50;;
3653;SDS011;70277;54.302;10.064;2024-01-15T12:35:45;2.40;;;0.82;;
3653;SDS011;70277;54.302;10.064;2024-01-15T12:38:11;3.10;;;0.80;;
3653;SDS011;70277;54.302;10.064;2024-01-15T12:40:38;0.63;;;0.57;;
3653;SDS011;70277;54.302;10.064;2024-01-15T12:43:05;2.50;;;0.70;;
3653;SDS011;70277;54.302;10.064;2024-01-15T12:45:33;2.88;;;1.05;;
3653;SDS011;70277;54.302;10.064;2024-01-15T12:48:01;1.55;;;0.63;;
3653;SDS011;70277;54.302;10.064;2024-01-15T12:50:30;2.38;;;0.73;;
3653;SDS011;70277;54.302;10.064;2024-01-15T12:52:56;3.65;;;0.90;;
3653;SDS011;70277;54.302;10.064;2024-01-15T12:55:25;1.38;;;0.77;;
3653;SDS011;70277;54.302;10.064;2024-01-15T12:57:52;2.05;;;0.93;;
3653;SDS011;70277;54.302;10.064;2024-01-15T13:00:21;1.48;;;0.80;;
3653;SDS011;70277;54.302;10.064;2024-01-15T13:02:48;1.80;;;0.77;;
3653;SDS011;70277;54.302;10.064;2024-01-15T13:05:16;1.77;;;0.55;;
3653;SDS011;70277;54.302;10.064;2024-01-15T13:07:43;2.53;;;1.40;;
3653;SDS011;70277;54.302;10.064;2024-01-15T13:10:10;0.93;;;0.63;;
3653;SDS011;70277;54.302;10.064;2024-01-15T13:12:37;2.28;;;0.60;;
3653;SDS011;70277;54.302;10.064;2024-01-15T13:15:05;2.85;;;0.73;;
3653;SDS011;70277;54.302;10.064;2024-01-15T13:17:32;3.03;;;0.90;;
3653;SDS011;70277;54.302;10.064;2024-01-15T13:19:58;1.23;;;0.80;;
3653;SDS011;70277;54.302;10.064;2024-01-15T13:22:26;2.70;;;1.00;;
3653;SDS011;70277;54.302;10.064;2024-01-15T13:24:58;1.23;;;0.60;;
3653;SDS011;70277;54.302;10.064;2024-01-15T13:27:25;2.45;;;0.90;;
3653;SDS011;70277;54.302;10.064;2024-01-15T13:29:51;1.58;;;0.90;;
3653;SDS011;70277;54.302;10.064;2024-01-15T13:32:22;1.38;;;0.60;;
3653;SDS011;70277;54.302;10.064;2024-01-15T13:34:52;2.95;;;1.00;;
3653;SDS011;70277;54.302;10.064;2024-01-15T13:37:20;3.40;;;0.73;;
3653;SDS011;70277;54.302;10.064;2024-01-15T13:39:47;6.93;;;1.00;;
3653;SDS011;70277;54.302;10.064;2024-01-15T13:42:14;1.58;;;0.77;;
3653;SDS011;70277;54.302;10.064;2024-01-15T13:44:41;3.97;;;0.82;;
3653;SDS011;70277;54.302;10.064;2024-01-15T13:47:08;1.85;;;0.57;;
3653;SDS011;70277;54.302;10.064;2024-01-15T13:49:35;4.97;;;0.75;;
3653;SDS011;70277;54.302;10.064;2024-01-15T13:52:03;3.63;;;0.75;;
3653;SDS011;70277;54.302;10.064;2024-01-15T13:54:30;1.10;;;0.80;;
3653;SDS011;70277;54.302;10.064;2024-01-15T13:57:14;3.45;;;0.70;;
3653;SDS011;70277;54.302;10.064;2024-01-15T13:59:41;2.47;;;0.93;;
3653;SDS011;70277;54.302;10.064;2024-01-15T14:02:08;4.13;;;0.98;;
3653;SDS011;70277;54.302;10.064;2024-01-15T14:04:36;5.28;;;0.93;;
3653;SDS011;70277;54.302;10.064;2024-01-15T14:07:03;2.38;;;0.80;;
3653;SDS011;70277;54.302;10.064;2024-01-15T14:09:30;4.18;;;0.90;;
3653;SDS011;70277;54.302;10.064;2024-01-15T14:11:58;7.95;;;0.80;;
3653;SDS011;70277;54.302;10.064;2024-01-15T14:14:26;1.13;;;0.50;;
3653;SDS011;70277;54.302;10.064;2024-01-15T14:16:52;3.20;;;0.90;;
3653;SDS011;70277;54.302;10.064;2024-01-15T14:19:19;2.60;;;0.57;;
3653;SDS011;70277;54.302;10.064;2024-01-15T14:21:47;0.77;;;0.60;;
3653;SDS011;70277;54.302;10.064;2024-01-15T14:24:14;6.10;;;0.75;;
3653;SDS011;70277;54.302;10.064;2024-01-15T14:26:40;0.75;;;0.68;;
3653;SDS011;70277;54.302;10.064;2024-01-15T14:29:07;4.18;;;0.80;;
3653;SDS011;70277;54.302;10.064;2024-01-15T14:31:34;2.50;;;0.90;;
3653;SDS011;70277;54.302;10.064;2024-01-15T14:34:01;3.33;;;0.60;;
3653;SDS011;70277;54.302;10.064;2024-01-15T14:36:29;6.50;;;0.90;;
3653;SDS011;70277;54.302;10.064;2024-01-15T14:38:56;2.63;;;0.77;;
3653;SDS011;70277;54.302;10.064;2024-01-15T14:41:23;4.72;;;0.60;;
3653;SDS011;70277;54.302;10.064;2024-01-15T14:43:50;2.38;;;0.68;;
3653;SDS011;70277;54.302;10.064;2024-01-15T14:46:16;3.17;;;0.60;;
3653;SDS011;70277;54.302;10.064;2024-01-15T14:48:43;3.53;;;0.65;;
3653;SDS011;70277;54.302;10.064;2024-01-15T14:51:11;1.60;;;0.77;;
3653;SDS011;70277;54.302;10.064;2024-01-15T14:53:38;7.00;;;1.08;;
3653;SDS011;70277;54.302;10.064;2024-01-15T14:56:05;2.67;;;0.70;;
3653;SDS011;70277;54.302;10.064;2024-01-15T14:58:31;5.32;;;1.00;;